Latest Weather Observations for Avalon

IDV60901

Issued at 9:41 pm EDT Sunday 16 December 2018 (issued every 10 minutes, with the page automatically refreshed every 10 minutes)

About weather observations | Map of Melbourne area stations | Latest observations for Melbourne area | Other Formats
Station Details ID: 087113 Name: AVALON AIRPORT Lat: -38.03 Lon: 144.48 Height: 10.6 m
Data from the previous 72 hours. | See also: Recent months at Avalon
Date/Time
EDT
Temp
°C
App
Temp
°C
Dew
Point
°C
Rel
Hum
%
Delta-T
°C
Wind Press
QNH
hPa
Press
MSL
hPa
Rain since
9am
mm
Dir  Spd
km/h
Gust
km/h
Spd
kts
Gust
kts
16/09:30pm 16.8 16.6 13.7 82 1.8 SSE 7 9 4 5 1007.2 1007.2 0.0
16/09:00pm 17.5 17.4 13.8 79 2.1 S 7 9 4 5 1007.1 1007.1 0.0
16/08:30pm 18.5 18.3 14.6 78 2.3 S 9 15 5 8 1007.1 1007.1 0.0
16/08:00pm 18.8 16.5 14.1 74 2.7 S 19 22 10 12 1006.8 1006.8 0.0
16/07:30pm 19.0 17.3 14.7 76 2.5 S 17 22 9 12 1006.5 1006.5 0.0
16/07:00pm 18.7 16.2 15.2 80 2.1 S 22 30 12 16 1006.1 1006.1 0.0
16/06:30pm 18.1 15.7 16.4 90 1.0 SSW 24 33 13 18 1006.1 1006.1 0.0
16/06:00pm 18.8 16.1 14.7 77 2.4 SSW 22 32 12 17 1005.7 1005.7 0.0
16/05:30pm 21.6 19.0 13.8 61 4.5 SSW 20 35 11 19 1004.9 1004.9 0.0
16/05:00pm 23.1 21.8 12.4 51 6.1 SW 11 17 6 9 1004.5 1004.5 0.0
16/04:30pm 23.3 20.9 12.6 51 6.1 WNW 17 24 9 13 1004.3 1004.3 0.0
16/04:00pm 22.8 20.0 13.3 55 5.5 N 20 30 11 16 1004.2 1004.2 0.0
16/03:30pm 23.9 21.1 14.3 55 5.7 N 22 30 12 16 1004.4 1004.4 0.0
16/03:00pm 22.5 20.0 12.4 52 5.8 N 17 24 9 13 1004.6 1004.6 0.0
16/02:30pm 22.5 19.9 13.3 56 5.3 NNW 19 24 10 13 1004.6 1004.6 0.0
16/02:00pm 21.5 18.6 12.9 58 4.9 NNE 20 33 11 18 1004.7 1004.7 0.0
16/01:30pm 20.9 18.9 12.6 59 4.7 NNW 15 28 8 15 1004.7 1004.7 0.0
16/01:00pm 23.5 21.1 11.5 47 6.8 NNW 15 22 8 12 1004.6 1004.6 0.0
16/12:30pm 23.4 21.8 11.5 47 6.7 NNW 11 19 6 10 1004.7 1004.7 0.0
16/12:00pm 21.8 20.6 11.5 52 5.8 NW 9 17 5 9 1004.8 1004.8 0.0
16/11:30am 21.8 19.8 11.5 52 5.7 NNW 13 26 7 14 1005.0 1005.0 0.0
16/11:00am 20.9 18.9 11.5 55 5.2 N 13 19 7 10 1005.0 1005.0 0.0
16/10:30am 20.3 18.4 11.8 58 4.7 N 13 17 7 9 1005.1 1005.1 0.0
16/10:00am 20.4 19.1 12.4 60 4.5 NNW 11 20 6 11 1005.3 1005.3 0.0
16/09:30am 19.9 18.7 12.9 64 4.0 NW 11 15 6 8 1005.3 1005.3 0.0
16/09:00am 20.2 19.9 13.4 65 3.9 W 7 11 4 6 1005.3 1005.3 0.2
16/08:30am 18.4 18.1 13.3 72 2.9 WNW 7 11 4 6 1005.3 1005.3 0.2
16/08:00am 18.1 17.4 13.2 73 2.8 W 9 13 5 7 1005.0 1005.0 0.2
16/07:30am 18.0 18.0 13.7 76 2.4 WNW 6 7 3 4 1004.7 1004.7 0.2
16/07:00am 16.9 16.5 14.0 83 1.7 WSW 9 13 5 7 1004.4 1004.4 0.2
16/06:30am 17.0 17.1 13.9 82 1.8 NNW 6 11 3 6 1004.1 1004.1 0.2
16/06:00am 16.6 16.5 13.9 84 1.5 N 7 9 4 5 1003.6 1003.6 0.2
16/05:30am 16.6 16.4 13.7 83 1.6 N 7 11 4 6 1003.3 1003.3 0.2
16/05:00am 16.8 15.8 13.5 81 1.9 N 11 13 6 7 1003.0 1003.0 0.2
16/04:30am 16.7 16.4 13.2 80 2.0 NNE 7 13 4 7 1002.6 1002.6 0.2
16/04:00am 16.6 15.8 12.8 78 2.1 NE 9 15 5 8 1002.8 1002.8 0.2
16/03:30am 16.8 16.4 13.1 79 2.1 NE 7 11 4 6 1003.0 1003.0 0.2
16/03:00am 17.3 16.6 13.2 77 2.3 NE 9 13 5 7 1002.9 1002.9 0.2
16/02:30am 17.8 16.2 13.9 78 2.2 ENE 15 20 8 11 1003.3 1003.3 0.2
16/02:00am 17.6 16.9 14.3 81 1.9 NE 11 15 6 8 1003.8 1003.8 0.2
16/01:30am 17.7 17.4 13.4 76 2.4 N 7 9 4 5 1003.8 1003.8 0.2
16/01:00am 17.8 16.8 13.3 75 2.5 N 11 15 6 8 1004.1 1004.1 0.2
16/12:30am 17.7 16.1 12.8 73 2.7 N 13 15 7 8 1004.0 1004.0 0.2
16/12:00am 18.6 17.5 13.0 70 3.2 NE 11 15 6 8 1004.1 1004.1 0.2
 
Date/Time
EDT
Temp
°C
App
Temp
°C
Dew
Point
°C
Rel
Hum
%
Delta-T
°C
Wind Press
QNH
hPa
Press
MSL
hPa
Rain since
9am
mm
Dir  Spd
km/h
Gust
km/h
Spd
kts
Gust
kts
15/11:30pm 19.1 17.7 13.3 69 3.3 NNE 13 20 7 11 1004.4 1004.4 0.2
15/11:00pm 18.5 17.2 12.5 68 3.4 NNE 11 15 6 8 1004.6 1004.6 0.2
15/10:30pm 19.2 18.0 12.9 67 3.6 NNW 11 13 6 7 1004.4 1004.4 0.2
15/10:00pm 20.5 18.4 12.5 60 4.5 N 15 17 8 9 1004.7 1004.7 0.2
15/09:30pm 20.8 19.4 12.2 58 4.8 NNE 11 17 6 9 1004.6 1004.6 0.2
15/09:00pm 20.5 19.0 12.0 58 4.8 NE 11 17 6 9 1004.2 1004.2 0.2
15/08:30pm 22.2 19.0 11.3 50 6.1 NNE 19 28 10 15 1003.5 1003.5 0.2
15/08:00pm 23.0 18.7 10.8 46 6.8 NNE 24 39 13 21 1002.8 1002.8 0.2
15/07:30pm 23.5 19.3 11.2 46 6.9 NNE 24 37 13 20 1002.7 1002.7 0.2
15/07:00pm 24.1 18.5 10.0 41 7.8 NNE 30 41 16 22 1002.7 1002.7 0.2
15/06:45pm 24.5 19.1 9.6 39 8.1 NNE 28 46 15 25 1002.7 1002.7 0.2
15/06:30pm 24.4 18.5 9.2 38 8.2 NNE 30 43 16 23 1002.7 1002.7 0.2
15/06:00pm 25.3 19.5 9.6 37 8.6 NNE 30 41 16 22 1002.8 1002.8 0.2
15/05:30pm 25.5 20.8 10.5 39 8.4 NNE 26 35 14 19 1002.8 1002.8 0.2
15/05:00pm 25.4 20.4 9.7 37 8.7 NNE 26 37 14 20 1003.1 1003.1 0.2
15/04:30pm 24.5 21.4 12.1 46 7.1 NNE 20 30 11 16 1003.3 1003.3 0.2
15/04:00pm 23.8 21.2 13.1 51 6.2 NNE 19 28 10 15 1003.6 1003.6 0.2
15/03:30pm 22.7 19.7 12.6 53 5.8 N 20 30 11 16 1003.4 1003.4 0.2
15/03:00pm 21.9 16.8 13.8 60 4.7 N 33 44 18 24 1003.8 1003.8 0.2
15/02:32pm 23.2 17.4 12.8 52 6.0 N 35 54 19 29 1003.7 1003.7 0.2
15/02:30pm 23.3 17.8 12.6 51 6.1 N 33 48 18 26 1003.6 1003.6 0.2
15/02:25pm 24.5 20.0 13.7 51 6.3 N 30 39 16 21 1003.5 1003.5 0.2
15/02:00pm 23.7 24.2 17.4 68 3.9 E 11 20 6 11 1003.6 1003.6 0.2
15/01:30pm 24.1 24.7 18.7 72 3.4 SSE 13 19 7 10 1003.3 1003.3 0.2
15/01:00pm 24.2 26.1 18.6 71 3.6 SSE 6 11 3 6 1003.3 1003.3 0.2
15/12:30pm 23.8 25.9 18.9 74 3.1 S 6 9 3 5 1003.9 1003.9 0.2
15/12:00pm 22.6 24.5 18.6 78 2.5 ENE 6 11 3 6 1004.2 1004.2 0.2
15/11:59am 22.6 24.4 18.4 77 2.6 ENE 6 11 3 6 1004.2 1004.2 0.2
15/11:30am 22.2 24.6 19.7 86 1.6 NE 6 11 3 6 1004.3 1004.3 0.0
15/11:28am 21.6 23.7 19.0 85 1.6 NE 6 11 3 6 1004.3 1004.3 0.0
15/11:26am 21.7 23.9 19.3 86 1.5 ENE 6 9 3 5 1004.3 1004.3 0.0
15/11:00am 21.2 22.6 19.5 90 1.1 SE 11 15 6 8 1004.5 1004.5 0.0
15/10:50am 20.9 22.4 19.0 89 1.2 SE 9 11 5 6 1004.6 1004.6 0.0
15/10:30am 21.3 23.1 19.6 90 1.1 E 9 13 5 7 1004.9 1004.9 0.0
15/10:27am 21.3 23.0 19.4 89 1.2 ENE 9 13 5 7 1004.9 1004.9 0.0
15/10:05am 20.6 21.9 19.3 92 0.8 ENE 11 15 6 8 1005.1 1005.1 0.0
15/10:00am 20.6 22.3 19.3 92 0.8 ENE 9 13 5 7 1005.2 1005.2 0.0
15/09:30am 20.4 22.5 20.1 98 0.2 SE 9 13 5 7 1005.0 1005.0 0.0
15/09:00am 20.2 21.1 20.0 99 0.1 SSE 15 20 8 11 1004.9 1004.9 4.8
15/08:30am 20.3 20.3 20.1 99 0.1 ESE 20 26 11 14 1005.1 1005.1 4.8
15/08:00am 19.7 18.7 19.7 100 0.0 ESE 24 35 13 19 1004.8 1004.8 4.8
15/07:58am 19.8 18.5 19.8 100 0.0 ESE 26 35 14 19 1004.8 1004.8 4.8
15/07:30am 19.5 19.2 19.5 100 0.0 SE 20 32 11 17 1004.8 1004.8 4.8
15/07:00am 19.2 19.3 19.2 100 0.0 SE 17 24 9 13 1004.3 1004.3 4.8
15/06:30am 19.0 19.0 19.0 100 0.0 SE 17 22 9 12 1004.2 1004.2 4.8
15/06:00am 18.9 18.9 18.9 100 0.0 SE 17 22 9 12 1004.3 1004.3 4.8
15/05:47am 18.7 18.2 18.7 100 0.0 SSE 19 24 10 13 1004.1 1004.1 4.8
15/05:30am 17.5 17.3 17.5 100 0.0 SSE 15 20 8 11 1004.3 1004.3 4.8
15/05:18am 17.1 18.2 17.1 100 0.0 SSE 7 13 4 7 1004.6 1004.6 4.8
15/05:00am 17.3 15.6 17.3 100 0.0 SE 22 35 12 19 1004.3 1004.3 4.6
15/04:30am 19.0 19.8 19.0 100 0.0 SE 13 20 7 11 1004.7 1004.7 2.6
15/04:00am 19.0 19.4 19.0 100 0.0 SE 15 19 8 10 1004.4 1004.4 2.6
15/03:30am 19.0 19.8 19.0 100 0.0 SE 13 17 7 9 1004.6 1004.6 2.6
15/03:00am 19.2 19.3 19.2 100 0.0 SE 17 20 9 11 1004.7 1004.7 2.4
15/02:36am 19.4 22.5 19.4 100 0.0 SE 2 7 1 4 1005.0 1005.0 1.8
15/02:30am 19.4 21.5 19.4 100 0.0 ESE 7 11 4 6 1005.0 1005.0 1.8
15/02:00am 19.3 21.0 19.3 100 0.0 ENE 9 11 5 6 1005.0 1005.0 1.6
15/01:30am 19.3 20.2 19.3 100 0.0 ESE 13 15 7 8 1005.3 1005.3 1.6
15/01:00am 19.4 20.7 19.4 100 0.0 SSE 11 13 6 7 1005.2 1005.2 1.6
15/12:52am 19.4 21.1 19.4 100 0.0 SSE 9 11 5 6 1005.4 1005.4 1.6
15/12:30am 19.5 21.3 19.5 100 0.0 ESE 9 13 5 7 1005.7 1005.7 1.6
15/12:00am 19.5 20.9 19.5 100 0.0 SE 11 13 6 7 1005.9 1005.9 1.6
 
Date/Time
EDT
Temp
°C
App
Temp
°C
Dew
Point
°C
Rel
Hum
%
Delta-T
°C
Wind Press
QNH
hPa
Press
MSL
hPa
Rain since
9am
mm
Dir  Spd
km/h
Gust
km/h
Spd
kts
Gust
kts
14/11:59pm 19.5 21.3 19.5 100 0.0 SE 9 13 5 7 1005.9 1005.9 1.6
14/11:38pm 19.7 21.6 19.7 100 0.0 ESE 9 13 5 7 1005.6 1005.6 1.2
14/11:30pm 20.0 21.2 20.0 100 0.0 E 13 15 7 8 1005.6 1005.6 1.2
14/11:17pm 19.8 21.3 19.8 100 0.0 E 11 13 6 7 1005.8 1005.8 1.2
14/11:00pm 19.7 20.8 19.7 100 0.0 ESE 13 17 7 9 1005.7 1005.7 1.2
14/10:34pm 19.9 20.7 19.9 100 0.0 SE 15 20 8 11 1005.8 1005.8 1.2
14/10:30pm 19.8 20.6 19.8 100 0.0 SE 15 20 8 11 1005.8 1005.8 1.2
14/10:00pm 19.8 20.2 19.8 100 0.0 SE 17 20 9 11 1005.5 1005.5 1.2
14/09:30pm 19.8 19.6 19.8 100 0.0 SE 20 26 11 14 1005.1 1005.1 1.2
14/09:00pm 20.2 19.4 20.0 99 0.1 SE 24 30 13 16 1004.9 1004.9 1.2
14/08:30pm 20.3 20.5 20.1 99 0.1 SE 19 30 10 16 1004.7 1004.7 1.2
14/08:03pm 20.4 20.4 20.2 99 0.1 SE 20 28 11 15 1004.5 1004.5 1.2
14/08:00pm 20.4 20.6 20.2 99 0.1 SE 19 28 10 15 1004.4 1004.4 1.2
14/07:30pm 20.1 21.8 20.1 100 0.0 S 11 17 6 9 1004.0 1004.0 1.2
14/07:00pm 19.5 19.8 19.5 100 0.0 SSW 17 24 9 13 1003.8 1003.8 1.2
14/06:30pm 19.5 19.3 19.3 99 0.1 SSW 19 24 10 13 1003.7 1003.7 1.2
14/06:00pm 19.9 19.2 18.7 93 0.8 S 20 26 11 14 1003.3 1003.3 1.2
14/05:30pm 20.2 18.7 18.5 90 1.1 SSE 24 30 13 16 1003.6 1003.6 1.2
14/05:02pm 21.1 20.1 18.9 87 1.4 SSE 22 28 12 15 1003.5 1003.5 1.2
14/05:00pm 21.1 20.5 18.9 87 1.4 SSE 20 26 11 14 1003.5 1003.5 1.2
14/04:30pm 21.6 19.6 18.2 81 2.1 S 26 32 14 17 1003.4 1003.4 1.2
14/04:00pm 22.5 20.6 17.6 74 3.0 S 24 32 13 17 1003.7 1003.7 1.2
14/03:30pm 24.0 22.9 17.3 66 4.2 S 19 30 10 16 1003.8 1003.8 1.2
14/03:00pm 23.7 21.5 16.0 62 4.7 S 22 30 12 16 1003.7 1003.7 1.2
14/02:30pm 23.8 23.2 16.6 64 4.4 S 15 24 8 13 1003.9 1003.9 1.2
14/02:00pm 22.7 22.8 17.4 72 3.3 SSW 13 20 7 11 1004.2 1004.2 1.2
14/01:30pm 22.5 23.3 15.8 66 4.0 SE 6 11 3 6 1004.1 1004.1 1.2
14/01:00pm 21.4 21.5 15.5 69 3.5 WNW 9 17 5 9 1003.9 1003.9 1.2
14/12:30pm 19.9 21.0 18.0 89 1.2 W 9 13 5 7 1003.7 1003.7 1.2
14/12:00pm 19.0 18.2 17.0 88 1.2 WSW 17 24 9 13 1003.2 1003.2 1.2
14/11:30am 18.8 18.3 16.9 89 1.1 NW 15 17 8 9 1004.2 1004.2 1.2
14/11:00am 19.3 18.8 16.9 86 1.5 N 15 20 8 11 1004.3 1004.3 0.4
14/10:30am 18.8 18.4 15.3 80 2.1 NW 11 15 6 8 1004.1 1004.1 0.2
14/10:00am 18.8 17.5 14.7 77 2.4 NW 15 19 8 10 1004.1 1004.1 0.0
14/09:30am 18.7 17.2 15.2 80 2.1 NW 17 20 9 11 1003.8 1003.8 0.0
14/09:00am 18.4 17.7 15.3 82 1.8 NNW 13 19 7 10 1003.5 1003.5 11.0
14/08:52am 18.4 17.0 15.5 83 1.7 NNW 17 22 9 12 1003.4 1003.4 11.0
14/08:30am 18.1 17.9 17.5 96 0.4 N 15 20 8 11 1003.4 1003.4 11.0
14/08:00am 18.5 21.1 18.5 100 0.0 NNW 2 9 1 5 1002.8 1002.8 11.0
14/07:30am 18.1 20.6 18.1 100 0.0 W 2 7 1 4 1002.4 1002.4 11.0
14/07:00am 17.7 19.1 17.7 100 0.0 W 7 9 4 5 1001.1 1001.1 11.0
14/06:30am 17.1 18.2 17.1 100 0.0 NW 7 9 4 5 1001.2 1001.2 11.0
14/06:00am 17.2 18.3 17.2 100 0.0 NNW 7 9 4 5 1000.9 1000.9 11.0
14/05:30am 17.5 18.0 17.5 100 0.0 NNE 11 15 6 8 1001.2 1001.2 11.0
14/05:20am 17.3 17.7 17.3 100 0.0 NE 11 15 6 8 1000.9 1000.9 11.0
14/05:00am 17.2 17.6 17.2 100 0.0 ESE 11 13 6 7 1000.5 1000.5 11.0
14/04:30am 17.4 17.5 17.4 100 0.0 ESE 13 15 7 8 1000.1 1000.1 11.0
14/04:00am 17.5 18.0 17.5 100 0.0 E 11 13 6 7 999.8 999.8 11.0
14/03:30am 17.4 18.6 17.4 100 0.0 E 7 9 4 5 999.5 999.5 11.0
14/03:00am 17.7 19.1 17.7 100 0.0 NE 7 9 4 5 999.3 999.3 11.0
14/02:30am 17.6 18.9 17.6 100 0.0 ESE 7 9 4 5 999.2 999.2 11.0
14/02:00am 17.6 19.9 17.6 100 0.0 S 2 6 1 3 998.9 998.9 11.0
14/01:30am 17.7 18.7 17.7 100 0.0 S 9 9 5 5 998.5 998.5 11.0
14/01:14am 17.9 20.7 17.9 100 0.0 CALM 0 0 0 0 998.2 998.2 11.0
14/01:00am 17.9 20.7 17.9 100 0.0 CALM 0 0 0 0 998.2 998.2 11.0
14/12:33am 17.8 19.2 17.8 100 0.0 S 7 11 4 6 998.0 998.0 11.0
14/12:30am 17.8 18.8 17.8 100 0.0 S 9 11 5 6 998.0 998.0 11.0
14/12:00am 17.7 19.1 17.7 100 0.0 SE 7 9 4 5 997.7 997.7 11.0
 
Date/Time
EDT
Temp
°C
App
Temp
°C
Dew
Point
°C
Rel
Hum
%
Delta-T
°C
Wind Press
QNH
hPa
Press
MSL
hPa
Rain since
9am
mm
Dir  Spd
km/h
Gust
km/h
Spd
kts
Gust
kts
13/11:30pm 18.0 19.1 18.0 100 0.0 S 9 11 5 6 997.3 997.3 11.0
13/11:16pm 18.0 18.7 18.0 100 0.0 SSW 11 15 6 8 997.0 997.0 11.0
13/11:00pm 18.2 19.8 18.2 100 0.0 SSW 7 9 4 5 997.0 997.0 11.0
13/10:30pm 17.8 18.8 17.8 100 0.0 W 9 13 5 7 997.5 997.5 11.0
13/10:00pm 17.6 18.2 17.6 100 0.0 WSW 11 17 6 9 997.5 997.5 11.0

Latest Capital City Observations: Canberra | Sydney | Melbourne | Brisbane | Adelaide | Perth | Hobart | Darwin

Other Formats:

Comma delimited format used in spreadsheet applications
http://www.bom.gov.au/fwo/IDV60901/IDV60901.94854.axf

JavaScript Object Notation format (JSON) in row-major order
http://www.bom.gov.au/fwo/IDV60901/IDV60901.94854.json